sensor_id;sensor_type;location;lat;lon;timestamp;P1;durP1;ratioP1;P2;durP2;ratioP2
5819;SDS011;2936;47.348;9.640;2023-04-19T00:01:02;14.80;;;10.05;;
5819;SDS011;2936;47.348;9.640;2023-04-19T00:03:30;15.40;;;10.70;;
5819;SDS011;2936;47.348;9.640;2023-04-19T00:05:57;15.52;;;11.05;;
5819;SDS011;2936;47.348;9.640;2023-04-19T00:08:25;11.70;;;9.98;;
5819;SDS011;2936;47.348;9.640;2023-04-19T00:10:52;15.90;;;11.00;;
5819;SDS011;2936;47.348;9.640;2023-04-19T00:13:20;17.83;;;9.82;;
5819;SDS011;2936;47.348;9.640;2023-04-19T00:15:47;16.52;;;11.13;;
5819;SDS011;2936;47.348;9.640;2023-04-19T00:18:16;13.18;;;10.07;;
5819;SDS011;2936;47.348;9.640;2023-04-19T00:20:44;11.63;;;10.15;;
5819;SDS011;2936;47.348;9.640;2023-04-19T00:23:12;12.60;;;11.13;;
5819;SDS011;2936;47.348;9.640;2023-04-19T00:25:40;13.10;;;10.68;;
5819;SDS011;2936;47.348;9.640;2023-04-19T00:28:07;17.98;;;10.90;;
5819;SDS011;2936;47.348;9.640;2023-04-19T00:30:35;15.15;;;11.65;;
5819;SDS011;2936;47.348;9.640;2023-04-19T00:33:02;17.10;;;11.32;;
5819;SDS011;2936;47.348;9.640;2023-04-19T00:35:31;14.73;;;9.90;;
5819;SDS011;2936;47.348;9.640;2023-04-19T00:37:59;11.15;;;9.90;;
5819;SDS011;2936;47.348;9.640;2023-04-19T00:40:26;15.85;;;11.30;;
5819;SDS011;2936;47.348;9.640;2023-04-19T00:42:53;14.98;;;10.90;;
5819;SDS011;2936;47.348;9.640;2023-04-19T00:45:21;16.60;;;11.00;;
5819;SDS011;2936;47.348;9.640;2023-04-19T00:47:48;15.63;;;11.10;;
5819;SDS011;2936;47.348;9.640;2023-04-19T00:50:16;13.45;;;10.13;;
5819;SDS011;2936;47.348;9.640;2023-04-19T00:52:45;14.32;;;10.93;;
5819;SDS011;2936;47.348;9.640;2023-04-19T00:55:13;15.60;;;11.63;;
5819;SDS011;2936;47.348;9.640;2023-04-19T00:57:40;18.02;;;11.32;;
5819;SDS011;2936;47.348;9.640;2023-04-19T01:00:08;27.75;;;12.25;;
5819;SDS011;2936;47.348;9.640;2023-04-19T01:02:36;15.30;;;10.88;;
5819;SDS011;2936;47.348;9.640;2023-04-19T01:05:04;13.00;;;10.68;;
5819;SDS011;2936;47.348;9.640;2023-04-19T01:07:35;18.70;;;11.75;;
5819;SDS011;2936;47.348;9.640;2023-04-19T01:10:04;14.27;;;11.63;;
5819;SDS011;2936;47.348;9.640;2023-04-19T01:12:32;15.23;;;11.63;;
5819;SDS011;2936;47.348;9.640;2023-04-19T01:15:00;18.85;;;11.48;;
5819;SDS011;2936;47.348;9.640;2023-04-19T01:17:28;15.88;;;12.00;;
5819;SDS011;2936;47.348;9.640;2023-04-19T01:22:41;18.08;;;12.27;;
5819;SDS011;2936;47.348;9.640;2023-04-19T01:25:09;35.45;;;11.90;;
5819;SDS011;2936;47.348;9.640;2023-04-19T01:27:36;12.93;;;11.60;;
5819;SDS011;2936;47.348;9.640;2023-04-19T01:30:04;12.95;;;11.40;;
5819;SDS011;2936;47.348;9.640;2023-04-19T01:32:32;18.20;;;11.60;;
5819;SDS011;2936;47.348;9.640;2023-04-19T01:34:59;16.30;;;11.80;;
5819;SDS011;2936;47.348;9.640;2023-04-19T01:37:27;18.38;;;13.10;;
5819;SDS011;2936;47.348;9.640;2023-04-19T01:40:01;15.20;;;11.30;;
5819;SDS011;2936;47.348;9.640;2023-04-19T01:42:29;15.85;;;11.80;;
5819;SDS011;2936;47.348;9.640;2023-04-19T01:44:57;18.08;;;12.23;;
5819;SDS011;2936;47.348;9.640;2023-04-19T01:47:24;15.40;;;12.20;;
5819;SDS011;2936;47.348;9.640;2023-04-19T01:49:52;15.45;;;11.57;;
5819;SDS011;2936;47.348;9.640;2023-04-19T01:52:19;16.88;;;12.48;;
5819;SDS011;2936;47.348;9.640;2023-04-19T01:54:47;15.00;;;11.95;;
5819;SDS011;2936;47.348;9.640;2023-04-19T01:57:18;16.63;;;12.57;;
5819;SDS011;2936;47.348;9.640;2023-04-19T01:59:46;16.88;;;12.35;;
5819;SDS011;2936;47.348;9.640;2023-04-19T02:02:14;15.02;;;11.40;;
5819;SDS011;2936;47.348;9.640;2023-04-19T02:04:41;16.02;;;11.95;;
5819;SDS011;2936;47.348;9.640;2023-04-19T02:07:09;16.05;;;11.90;;
5819;SDS011;2936;47.348;9.640;2023-04-19T02:09:37;13.15;;;11.73;;
5819;SDS011;2936;47.348;9.640;2023-04-19T02:12:04;14.75;;;11.90;;
5819;SDS011;2936;47.348;9.640;2023-04-19T02:14:33;15.88;;;11.90;;
5819;SDS011;2936;47.348;9.640;2023-04-19T02:17:01;17.13;;;12.82;;
5819;SDS011;2936;47.348;9.640;2023-04-19T02:19:28;15.32;;;12.48;;
5819;SDS011;2936;47.348;9.640;2023-04-19T02:21:56;19.85;;;12.07;;
5819;SDS011;2936;47.348;9.640;2023-04-19T02:24:23;16.42;;;11.70;;
5819;SDS011;2936;47.348;9.640;2023-04-19T02:26:51;16.88;;;12.23;;
5819;SDS011;2936;47.348;9.640;2023-04-19T02:29:18;15.57;;;12.02;;
5819;SDS011;2936;47.348;9.640;2023-04-19T02:31:47;18.88;;;13.00;;
5819;SDS011;2936;47.348;9.640;2023-04-19T02:34:15;20.73;;;12.75;;
5819;SDS011;2936;47.348;9.640;2023-04-19T02:36:42;19.02;;;13.70;;
5819;SDS011;2936;47.348;9.640;2023-04-19T02:39:10;19.25;;;13.68;;
5819;SDS011;2936;47.348;9.640;2023-04-19T02:41:37;18.65;;;13.77;;
5819;SDS011;2936;47.348;9.640;2023-04-19T02:44:05;22.70;;;14.13;;
5819;SDS011;2936;47.348;9.640;2023-04-19T02:46:32;21.05;;;12.88;;
5819;SDS011;2936;47.348;9.640;2023-04-19T02:49:01;18.60;;;13.35;;
5819;SDS011;2936;47.348;9.640;2023-04-19T02:51:29;17.88;;;13.02;;
5819;SDS011;2936;47.348;9.640;2023-04-19T02:53:56;18.30;;;13.13;;
5819;SDS011;2936;47.348;9.640;2023-04-19T02:56:24;18.13;;;12.93;;
5819;SDS011;2936;47.348;9.640;2023-04-19T02:58:51;18.17;;;12.40;;
5819;SDS011;2936;47.348;9.640;2023-04-19T03:01:21;18.40;;;14.15;;
5819;SDS011;2936;47.348;9.640;2023-04-19T03:03:49;17.77;;;13.40;;
5819;SDS011;2936;47.348;9.640;2023-04-19T03:06:18;25.35;;;13.90;;
5819;SDS011;2936;47.348;9.640;2023-04-19T03:08:45;20.30;;;13.90;;
5819;SDS011;2936;47.348;9.640;2023-04-19T03:11:14;19.77;;;13.95;;
5819;SDS011;2936;47.348;9.640;2023-04-19T03:13:41;17.77;;;13.05;;
5819;SDS011;2936;47.348;9.640;2023-04-19T03:16:09;21.10;;;13.98;;
5819;SDS011;2936;47.348;9.640;2023-04-19T03:18:36;19.52;;;14.23;;
5819;SDS011;2936;47.348;9.640;2023-04-19T03:21:04;24.52;;;16.10;;
5819;SDS011;2936;47.348;9.640;2023-04-19T03:23:35;19.38;;;13.50;;
5819;SDS011;2936;47.348;9.640;2023-04-19T03:26:02;27.10;;;14.15;;
5819;SDS011;2936;47.348;9.640;2023-04-19T03:28:30;19.48;;;14.60;;
5819;SDS011;2936;47.348;9.640;2023-04-19T03:30:57;23.67;;;16.60;;
5819;SDS011;2936;47.348;9.640;2023-04-19T03:33:25;20.17;;;15.10;;
5819;SDS011;2936;47.348;9.640;2023-04-19T03:35:52;24.73;;;15.00;;
5819;SDS011;2936;47.348;9.640;2023-04-19T03:38:19;19.75;;;14.38;;
5819;SDS011;2936;47.348;9.640;2023-04-19T03:40:48;20.98;;;14.60;;
5819;SDS011;2936;47.348;9.640;2023-04-19T03:43:16;19.70;;;14.65;;
5819;SDS011;2936;47.348;9.640;2023-04-19T03:45:43;21.50;;;13.65;;
5819;SDS011;2936;47.348;9.640;2023-04-19T03:48:11;19.33;;;14.52;;
5819;SDS011;2936;47.348;9.640;2023-04-19T03:50:38;20.05;;;14.68;;
5819;SDS011;2936;47.348;9.640;2023-04-19T03:53:06;23.92;;;15.82;;
5819;SDS011;2936;47.348;9.640;2023-04-19T03:55:33;22.95;;;15.85;;
5819;SDS011;2936;47.348;9.640;2023-04-19T03:58:02;24.60;;;15.07;;
5819;SDS011;2936;47.348;9.640;2023-04-19T04:00:30;26.30;;;15.35;;
5819;SDS011;2936;47.348;9.640;2023-04-19T04:02:57;21.58;;;14.43;;
5819;SDS011;2936;47.348;9.640;2023-04-19T04:05:26;24.13;;;14.60;;
5819;SDS011;2936;47.348;9.640;2023-04-19T04:07:53;26.92;;;15.85;;
5819;SDS011;2936;47.348;9.640;2023-04-19T04:10:22;23.60;;;15.40;;
5819;SDS011;2936;47.348;9.640;2023-04-19T04:12:49;25.83;;;15.95;;
5819;SDS011;2936;47.348;9.640;2023-04-19T04:15:18;25.88;;;16.27;;
5819;SDS011;2936;47.348;9.640;2023-04-19T04:17:46;22.63;;;15.50;;
5819;SDS011;2936;47.348;9.640;2023-04-19T04:20:13;23.90;;;15.48;;
5819;SDS011;2936;47.348;9.640;2023-04-19T04:22:41;28.85;;;18.23;;
5819;SDS011;2936;47.348;9.640;2023-04-19T04:25:10;23.52;;;14.95;;
5819;SDS011;2936;47.348;9.640;2023-04-19T04:27:37;21.70;;;15.25;;
5819;SDS011;2936;47.348;9.640;2023-04-19T04:30:06;26.95;;;15.75;;
5819;SDS011;2936;47.348;9.640;2023-04-19T04:32:35;24.60;;;16.40;;
5819;SDS011;2936;47.348;9.640;2023-04-19T04:35:02;34.47;;;16.27;;
5819;SDS011;2936;47.348;9.640;2023-04-19T04:37:30;21.92;;;14.93;;
5819;SDS011;2936;47.348;9.640;2023-04-19T04:39:58;26.90;;;16.48;;
5819;SDS011;2936;47.348;9.640;2023-04-19T04:42:26;37.90;;;16.20;;
5819;SDS011;2936;47.348;9.640;2023-04-19T04:44:55;23.17;;;15.77;;
5819;SDS011;2936;47.348;9.640;2023-04-19T04:47:29;22.77;;;15.90;;
5819;SDS011;2936;47.348;9.640;2023-04-19T04:49:58;20.90;;;15.80;;
5819;SDS011;2936;47.348;9.640;2023-04-19T04:52:28;28.63;;;16.88;;
5819;SDS011;2936;47.348;9.640;2023-04-19T04:54:55;23.70;;;16.05;;
5819;SDS011;2936;47.348;9.640;2023-04-19T05:00:23;28.98;;;15.98;;
5819;SDS011;2936;47.348;9.640;2023-04-19T05:02:51;28.83;;;15.75;;
5819;SDS011;2936;47.348;9.640;2023-04-19T05:05:20;35.45;;;16.45;;
5819;SDS011;2936;47.348;9.640;2023-04-19T05:07:47;26.95;;;17.10;;
5819;SDS011;2936;47.348;9.640;2023-04-19T05:10:15;25.98;;;17.00;;
5819;SDS011;2936;47.348;9.640;2023-04-19T05:12:42;23.42;;;15.80;;
5819;SDS011;2936;47.348;9.640;2023-04-19T05:15:10;25.13;;;15.40;;
5819;SDS011;2936;47.348;9.640;2023-04-19T05:17:37;25.23;;;16.05;;
5819;SDS011;2936;47.348;9.640;2023-04-19T05:20:07;27.83;;;18.10;;
5819;SDS011;2936;47.348;9.640;2023-04-19T05:22:36;28.13;;;16.73;;
5819;SDS011;2936;47.348;9.640;2023-04-19T05:25:04;21.88;;;15.90;;
5819;SDS011;2936;47.348;9.640;2023-04-19T05:27:32;30.42;;;18.25;;
5819;SDS011;2936;47.348;9.640;2023-04-19T05:29:59;22.00;;;16.17;;
5819;SDS011;2936;47.348;9.640;2023-04-19T05:32:27;24.48;;;16.70;;
5819;SDS011;2936;47.348;9.640;2023-04-19T05:34:55;24.77;;;15.68;;
5819;SDS011;2936;47.348;9.640;2023-04-19T05:37:22;25.63;;;16.63;;
5819;SDS011;2936;47.348;9.640;2023-04-19T05:39:51;19.73;;;14.25;;
5819;SDS011;2936;47.348;9.640;2023-04-19T05:42:18;33.30;;;17.50;;
5819;SDS011;2936;47.348;9.640;2023-04-19T05:44:46;31.67;;;16.45;;
5819;SDS011;2936;47.348;9.640;2023-04-19T05:47:13;27.52;;;16.23;;
5819;SDS011;2936;47.348;9.640;2023-04-19T05:49:41;19.52;;;13.82;;
5819;SDS011;2936;47.348;9.640;2023-04-19T05:52:09;32.13;;;16.45;;
5819;SDS011;2936;47.348;9.640;2023-04-19T05:54:36;26.83;;;16.50;;
5819;SDS011;2936;47.348;9.640;2023-04-19T05:57:05;21.15;;;15.45;;
5819;SDS011;2936;47.348;9.640;2023-04-19T05:59:33;24.17;;;15.00;;
5819;SDS011;2936;47.348;9.640;2023-04-19T06:02:00;27.05;;;16.40;;
5819;SDS011;2936;47.348;9.640;2023-04-19T06:04:28;28.45;;;16.50;;
5819;SDS011;2936;47.348;9.640;2023-04-19T06:06:56;28.65;;;17.40;;
5819;SDS011;2936;47.348;9.640;2023-04-19T06:09:23;29.23;;;16.95;;
5819;SDS011;2936;47.348;9.640;2023-04-19T06:11:50;40.30;;;17.98;;
5819;SDS011;2936;47.348;9.640;2023-04-19T06:14:20;35.38;;;18.23;;
5819;SDS011;2936;47.348;9.640;2023-04-19T06:16:47;37.10;;;16.63;;
5819;SDS011;2936;47.348;9.640;2023-04-19T06:19:15;24.52;;;16.33;;
5819;SDS011;2936;47.348;9.640;2023-04-19T06:21:42;24.92;;;16.83;;
5819;SDS011;2936;47.348;9.640;2023-04-19T06:24:10;25.40;;;15.45;;
5819;SDS011;2936;47.348;9.640;2023-04-19T06:26:37;23.67;;;16.55;;
5819;SDS011;2936;47.348;9.640;2023-04-19T06:29:05;27.55;;;17.17;;
5819;SDS011;2936;47.348;9.640;2023-04-19T06:31:34;23.60;;;16.35;;
5819;SDS011;2936;47.348;9.640;2023-04-19T06:34:01;26.75;;;17.48;;
5819;SDS011;2936;47.348;9.640;2023-04-19T06:36:29;21.52;;;15.18;;
5819;SDS011;2936;47.348;9.640;2023-04-19T06:38:56;27.67;;;17.25;;
5819;SDS011;2936;47.348;9.640;2023-04-19T06:41:24;23.70;;;16.00;;
5819;SDS011;2936;47.348;9.640;2023-04-19T06:43:51;30.83;;;16.95;;
5819;SDS011;2936;47.348;9.640;2023-04-19T06:46:18;24.10;;;16.75;;
5819;SDS011;2936;47.348;9.640;2023-04-19T06:48:47;22.00;;;15.07;;
5819;SDS011;2936;47.348;9.640;2023-04-19T06:51:15;24.05;;;16.05;;
5819;SDS011;2936;47.348;9.640;2023-04-19T06:53:42;22.15;;;15.30;;
5819;SDS011;2936;47.348;9.640;2023-04-19T06:56:10;22.33;;;15.52;;
5819;SDS011;2936;47.348;9.640;2023-04-19T06:58:38;20.38;;;14.77;;
5819;SDS011;2936;47.348;9.640;2023-04-19T07:01:05;23.77;;;15.85;;
5819;SDS011;2936;47.348;9.640;2023-04-19T07:03:32;23.15;;;15.05;;
5819;SDS011;2936;47.348;9.640;2023-04-19T07:06:01;20.90;;;14.77;;
5819;SDS011;2936;47.348;9.640;2023-04-19T07:08:29;24.48;;;14.68;;
5819;SDS011;2936;47.348;9.640;2023-04-19T07:10:57;20.40;;;14.88;;
5819;SDS011;2936;47.348;9.640;2023-04-19T07:13:24;22.98;;;15.30;;
5819;SDS011;2936;47.348;9.640;2023-04-19T07:15:51;23.13;;;14.70;;
5819;SDS011;2936;47.348;9.640;2023-04-19T07:18:19;24.02;;;15.15;;
5819;SDS011;2936;47.348;9.640;2023-04-19T07:20:46;23.25;;;15.15;;
5819;SDS011;2936;47.348;9.640;2023-04-19T07:23:15;28.70;;;16.05;;
5819;SDS011;2936;47.348;9.640;2023-04-19T07:25:43;21.83;;;15.50;;
5819;SDS011;2936;47.348;9.640;2023-04-19T07:28:11;24.02;;;15.07;;
5819;SDS011;2936;47.348;9.640;2023-04-19T07:30:40;21.95;;;14.45;;
5819;SDS011;2936;47.348;9.640;2023-04-19T07:33:10;34.30;;;17.15;;
5819;SDS011;2936;47.348;9.640;2023-04-19T07:35:37;22.50;;;15.27;;
5819;SDS011;2936;47.348;9.640;2023-04-19T07:38:05;22.23;;;14.95;;
5819;SDS011;2936;47.348;9.640;2023-04-19T07:40:34;20.67;;;14.35;;
5819;SDS011;2936;47.348;9.640;2023-04-19T07:43:01;24.85;;;15.65;;
5819;SDS011;2936;47.348;9.640;2023-04-19T07:45:29;22.30;;;14.90;;
5819;SDS011;2936;47.348;9.640;2023-04-19T07:47:56;23.15;;;16.45;;
5819;SDS011;2936;47.348;9.640;2023-04-19T07:50:24;23.77;;;15.10;;
5819;SDS011;2936;47.348;9.640;2023-04-19T07:52:52;20.55;;;14.30;;
5819;SDS011;2936;47.348;9.640;2023-04-19T07:55:21;19.17;;;13.90;;
5819;SDS011;2936;47.348;9.640;2023-04-19T07:57:50;21.02;;;15.30;;
5819;SDS011;2936;47.348;9.640;2023-04-19T08:00:17;25.48;;;15.70;;
5819;SDS011;2936;47.348;9.640;2023-04-19T08:02:47;20.83;;;14.48;;
5819;SDS011;2936;47.348;9.640;2023-04-19T08:05:15;24.92;;;16.00;;
5819;SDS011;2936;47.348;9.640;2023-04-19T08:07:42;28.50;;;15.18;;
5819;SDS011;2936;47.348;9.640;2023-04-19T08:10:10;26.92;;;15.95;;
5819;SDS011;2936;47.348;9.640;2023-04-19T08:12:38;27.33;;;15.52;;
5819;SDS011;2936;47.348;9.640;2023-04-19T08:15:07;21.55;;;15.23;;
5819;SDS011;2936;47.348;9.640;2023-04-19T08:17:36;25.27;;;16.00;;
5819;SDS011;2936;47.348;9.640;2023-04-19T08:20:04;27.50;;;15.45;;
5819;SDS011;2936;47.348;9.640;2023-04-19T08:22:32;23.23;;;15.93;;
5819;SDS011;2936;47.348;9.640;2023-04-19T08:25:00;20.70;;;15.38;;
5819;SDS011;2936;47.348;9.640;2023-04-19T08:27:27;22.23;;;15.15;;
5819;SDS011;2936;47.348;9.640;2023-04-19T08:29:55;21.92;;;15.57;;
5819;SDS011;2936;47.348;9.640;2023-04-19T08:32:24;20.63;;;14.60;;
5819;SDS011;2936;47.348;9.640;2023-04-19T08:34:51;30.30;;;15.43;;
5819;SDS011;2936;47.348;9.640;2023-04-19T08:37:19;22.55;;;14.80;;
5819;SDS011;2936;47.348;9.640;2023-04-19T08:39:46;24.60;;;14.88;;
5819;SDS011;2936;47.348;9.640;2023-04-19T08:42:13;26.67;;;16.00;;
5819;SDS011;2936;47.348;9.640;2023-04-19T08:44:41;19.35;;;14.40;;
5819;SDS011;2936;47.348;9.640;2023-04-19T08:47:09;22.63;;;14.95;;
5819;SDS011;2936;47.348;9.640;2023-04-19T08:49:39;19.92;;;14.25;;
5819;SDS011;2936;47.348;9.640;2023-04-19T08:52:06;20.88;;;14.55;;
5819;SDS011;2936;47.348;9.640;2023-04-19T08:54:35;22.40;;;14.63;;
5819;SDS011;2936;47.348;9.640;2023-04-19T08:57:02;22.75;;;13.77;;
5819;SDS011;2936;47.348;9.640;2023-04-19T08:59:32;25.00;;;15.30;;
5819;SDS011;2936;47.348;9.640;2023-04-19T09:02:00;19.00;;;14.25;;
5819;SDS011;2936;47.348;9.640;2023-04-19T09:04:28;22.58;;;14.85;;
5819;SDS011;2936;47.348;9.640;2023-04-19T09:06:57;19.88;;;14.43;;
5819;SDS011;2936;47.348;9.640;2023-04-19T09:09:25;20.48;;;15.27;;
5819;SDS011;2936;47.348;9.640;2023-04-19T09:11:52;19.52;;;14.70;;
5819;SDS011;2936;47.348;9.640;2023-04-19T09:14:21;23.15;;;15.57;;
5819;SDS011;2936;47.348;9.640;2023-04-19T09:16:49;27.48;;;13.45;;
5819;SDS011;2936;47.348;9.640;2023-04-19T09:19:17;23.50;;;14.23;;
5819;SDS011;2936;47.348;9.640;2023-04-19T09:21:45;21.05;;;15.35;;
5819;SDS011;2936;47.348;9.640;2023-04-19T09:24:17;22.92;;;15.52;;
5819;SDS011;2936;47.348;9.640;2023-04-19T09:26:52;22.15;;;15.07;;
5819;SDS011;2936;47.348;9.640;2023-04-19T09:29:21;18.35;;;14.70;;
5819;SDS011;2936;47.348;9.640;2023-04-19T09:31:56;22.65;;;15.43;;
5819;SDS011;2936;47.348;9.640;2023-04-19T09:34:24;20.40;;;14.18;;
5819;SDS011;2936;47.348;9.640;2023-04-19T09:36:53;20.63;;;15.50;;
5819;SDS011;2936;47.348;9.640;2023-04-19T09:39:29;19.83;;;14.32;;
5819;SDS011;2936;47.348;9.640;2023-04-19T09:41:56;19.85;;;14.65;;
5819;SDS011;2936;47.348;9.640;2023-04-19T09:44:24;18.50;;;13.75;;
5819;SDS011;2936;47.348;9.640;2023-04-19T09:46:52;20.52;;;13.38;;
5819;SDS011;2936;47.348;9.640;2023-04-19T09:49:20;23.45;;;14.23;;
5819;SDS011;2936;47.348;9.640;2023-04-19T09:51:49;27.00;;;14.05;;
5819;SDS011;2936;47.348;9.640;2023-04-19T09:54:17;20.30;;;13.95;;
5819;SDS011;2936;47.348;9.640;2023-04-19T09:56:46;18.80;;;13.98;;
5819;SDS011;2936;47.348;9.640;2023-04-19T09:59:14;16.38;;;13.00;;
5819;SDS011;2936;47.348;9.640;2023-04-19T10:01:43;25.10;;;14.23;;
5819;SDS011;2936;47.348;9.640;2023-04-19T10:04:11;20.98;;;13.73;;
5819;SDS011;2936;47.348;9.640;2023-04-19T10:06:46;16.52;;;13.02;;
5819;SDS011;2936;47.348;9.640;2023-04-19T10:09:14;20.17;;;13.55;;
5819;SDS011;2936;47.348;9.640;2023-04-19T10:11:42;16.80;;;12.10;;
5819;SDS011;2936;47.348;9.640;2023-04-19T10:14:11;19.48;;;13.40;;
5819;SDS011;2936;47.348;9.640;2023-04-19T10:16:39;17.42;;;13.43;;
5819;SDS011;2936;47.348;9.640;2023-04-19T10:19:07;17.95;;;12.90;;
5819;SDS011;2936;47.348;9.640;2023-04-19T10:21:35;17.88;;;13.23;;
5819;SDS011;2936;47.348;9.640;2023-04-19T10:24:03;18.00;;;13.93;;
5819;SDS011;2936;47.348;9.640;2023-04-19T10:26:30;17.75;;;13.48;;
5819;SDS011;2936;47.348;9.640;2023-04-19T10:32:04;20.27;;;13.65;;
5819;SDS011;2936;47.348;9.640;2023-04-19T10:34:40;18.40;;;12.40;;
5819;SDS011;2936;47.348;9.640;2023-04-19T10:37:09;18.10;;;13.70;;
5819;SDS011;2936;47.348;9.640;2023-04-19T10:39:37;18.63;;;13.82;;
5819;SDS011;2936;47.348;9.640;2023-04-19T10:42:06;24.45;;;13.75;;
5819;SDS011;2936;47.348;9.640;2023-04-19T10:44:33;22.35;;;13.82;;
5819;SDS011;2936;47.348;9.640;2023-04-19T10:47:07;18.38;;;13.05;;
5819;SDS011;2936;47.348;9.640;2023-04-19T10:49:43;25.15;;;14.75;;
5819;SDS011;2936;47.348;9.640;2023-04-19T10:52:25;18.30;;;14.13;;
5819;SDS011;2936;47.348;9.640;2023-04-19T10:54:54;18.65;;;14.38;;
5819;SDS011;2936;47.348;9.640;2023-04-19T10:57:22;23.48;;;13.77;;
5819;SDS011;2936;47.348;9.640;2023-04-19T11:02:36;18.23;;;13.27;;
5819;SDS011;2936;47.348;9.640;2023-04-19T11:05:04;20.90;;;14.25;;
5819;SDS011;2936;47.348;9.640;2023-04-19T11:07:36;20.42;;;13.57;;
5819;SDS011;2936;47.348;9.640;2023-04-19T11:10:04;17.75;;;13.27;;
5819;SDS011;2936;47.348;9.640;2023-04-19T11:12:32;17.38;;;13.10;;
5819;SDS011;2936;47.348;9.640;2023-04-19T11:15:00;17.37;;;13.13;;
5819;SDS011;2936;47.348;9.640;2023-04-19T11:17:28;21.58;;;14.13;;
5819;SDS011;2936;47.348;9.640;2023-04-19T11:19:57;16.90;;;13.03;;
5819;SDS011;2936;47.348;9.640;2023-04-19T11:22:31;23.70;;;13.20;;
5819;SDS011;2936;47.348;9.640;2023-04-19T11:25:08;16.50;;;12.88;;
5819;SDS011;2936;47.348;9.640;2023-04-19T11:27:37;11.93;;;10.63;;
5819;SDS011;2936;47.348;9.640;2023-04-19T11:30:06;16.20;;;12.80;;
5819;SDS011;2936;47.348;9.640;2023-04-19T11:32:34;15.30;;;12.37;;
5819;SDS011;2936;47.348;9.640;2023-04-19T11:35:07;14.50;;;11.73;;
5819;SDS011;2936;47.348;9.640;2023-04-19T11:37:35;17.93;;;11.50;;
5819;SDS011;2936;47.348;9.640;2023-04-19T11:40:02;11.60;;;9.90;;
5819;SDS011;2936;47.348;9.640;2023-04-19T11:42:30;13.80;;;10.97;;
5819;SDS011;2936;47.348;9.640;2023-04-19T11:44:58;16.87;;;11.80;;
5819;SDS011;2936;47.348;9.640;2023-04-19T11:47:25;12.30;;;10.50;;
5819;SDS011;2936;47.348;9.640;2023-04-19T11:49:53;12.87;;;10.00;;
5819;SDS011;2936;47.348;9.640;2023-04-19T11:52:23;18.03;;;10.70;;
5819;SDS011;2936;47.348;9.640;2023-04-19T11:54:51;10.23;;;8.73;;
5819;SDS011;2936;47.348;9.640;2023-04-19T11:57:28;15.73;;;9.83;;
5819;SDS011;2936;47.348;9.640;2023-04-19T12:00:02;12.20;;;9.67;;
5819;SDS011;2936;47.348;9.640;2023-04-19T12:02:35;12.50;;;9.53;;
5819;SDS011;2936;47.348;9.640;2023-04-19T12:05:07;16.03;;;10.07;;
5819;SDS011;2936;47.348;9.640;2023-04-19T12:07:36;11.70;;;9.47;;
5819;SDS011;2936;47.348;9.640;2023-04-19T12:10:09;11.60;;;10.20;;
5819;SDS011;2936;47.348;9.640;2023-04-19T12:12:37;11.87;;;9.50;;
5819;SDS011;2936;47.348;9.640;2023-04-19T12:15:05;13.40;;;10.47;;
5819;SDS011;2936;47.348;9.640;2023-04-19T12:17:33;11.20;;;9.97;;
5819;SDS011;2936;47.348;9.640;2023-04-19T12:20:01;15.77;;;9.80;;
5819;SDS011;2936;47.348;9.640;2023-04-19T12:22:29;12.90;;;10.80;;
5819;SDS011;2936;47.348;9.640;2023-04-19T12:24:58;10.75;;;9.65;;
5819;SDS011;2936;47.348;9.640;2023-04-19T12:27:25;13.50;;;10.73;;
5819;SDS011;2936;47.348;9.640;2023-04-19T12:29:53;12.17;;;10.40;;
5819;SDS011;2936;47.348;9.640;2023-04-19T12:32:20;13.60;;;10.30;;
5819;SDS011;2936;47.348;9.640;2023-04-19T12:34:48;14.80;;;9.77;;
5819;SDS011;2936;47.348;9.640;2023-04-19T12:37:15;12.83;;;9.90;;
5819;SDS011;2936;47.348;9.640;2023-04-19T12:39:43;11.63;;;10.18;;
5819;SDS011;2936;47.348;9.640;2023-04-19T12:42:12;18.52;;;9.88;;
5819;SDS011;2936;47.348;9.640;2023-04-19T12:44:39;11.80;;;10.20;;
5819;SDS011;2936;47.348;9.640;2023-04-19T12:47:07;11.40;;;10.20;;
5819;SDS011;2936;47.348;9.640;2023-04-19T12:49:34;15.43;;;11.90;;
5819;SDS011;2936;47.348;9.640;2023-04-19T12:52:02;12.75;;;10.70;;
5819;SDS011;2936;47.348;9.640;2023-04-19T12:54:29;16.03;;;11.50;;
5819;SDS011;2936;47.348;9.640;2023-04-19T12:56:57;15.60;;;11.07;;
5819;SDS011;2936;47.348;9.640;2023-04-19T12:59:27;18.47;;;12.23;;
5819;SDS011;2936;47.348;9.640;2023-04-19T13:01:54;15.23;;;11.35;;
5819;SDS011;2936;47.348;9.640;2023-04-19T13:04:22;20.52;;;13.50;;
5819;SDS011;2936;47.348;9.640;2023-04-19T13:06:50;23.20;;;13.27;;
5819;SDS011;2936;47.348;9.640;2023-04-19T13:09:17;16.52;;;12.82;;
5819;SDS011;2936;47.348;9.640;2023-04-19T13:11:45;21.58;;;13.57;;
5819;SDS011;2936;47.348;9.640;2023-04-19T13:14:12;18.35;;;13.13;;
5819;SDS011;2936;47.348;9.640;2023-04-19T13:16:41;20.70;;;15.40;;
5819;SDS011;2936;47.348;9.640;2023-04-19T13:19:09;20.38;;;14.02;;
5819;SDS011;2936;47.348;9.640;2023-04-19T13:21:37;19.00;;;13.20;;
5819;SDS011;2936;47.348;9.640;2023-04-19T13:24:04;19.40;;;14.10;;
5819;SDS011;2936;47.348;9.640;2023-04-19T13:26:32;16.15;;;13.15;;
5819;SDS011;2936;47.348;9.640;2023-04-19T13:29:00;16.02;;;12.82;;
5819;SDS011;2936;47.348;9.640;2023-04-19T13:31:27;17.25;;;12.95;;
5819;SDS011;2936;47.348;9.640;2023-04-19T13:33:56;19.65;;;13.48;;
5819;SDS011;2936;47.348;9.640;2023-04-19T13:39:13;24.73;;;13.77;;
5819;SDS011;2936;47.348;9.640;2023-04-19T13:41:41;17.92;;;13.52;;
5819;SDS011;2936;47.348;9.640;2023-04-19T13:44:08;17.40;;;13.45;;
5819;SDS011;2936;47.348;9.640;2023-04-19T13:46:36;24.00;;;14.15;;
5819;SDS011;2936;47.348;9.640;2023-04-19T13:49:05;25.98;;;15.68;;
5819;SDS011;2936;47.348;9.640;2023-04-19T13:51:32;31.98;;;14.40;;
5819;SDS011;2936;47.348;9.640;2023-04-19T13:54:00;33.20;;;15.70;;
5819;SDS011;2936;47.348;9.640;2023-04-19T13:56:27;17.58;;;13.70;;
5819;SDS011;2936;47.348;9.640;2023-04-19T13:58:55;19.83;;;14.07;;
5819;SDS011;2936;47.348;9.640;2023-04-19T14:01:22;20.63;;;12.50;;
5819;SDS011;2936;47.348;9.640;2023-04-19T14:03:51;34.47;;;12.90;;
5819;SDS011;2936;47.348;9.640;2023-04-19T14:06:20;17.55;;;13.73;;
5819;SDS011;2936;47.348;9.640;2023-04-19T14:08:47;22.40;;;15.50;;
5819;SDS011;2936;47.348;9.640;2023-04-19T14:11:15;16.92;;;12.85;;
5819;SDS011;2936;47.348;9.640;2023-04-19T14:13:43;19.55;;;13.25;;
5819;SDS011;2936;47.348;9.640;2023-04-19T14:16:12;25.60;;;16.40;;
5819;SDS011;2936;47.348;9.640;2023-04-19T14:18:46;20.20;;;14.50;;
5819;SDS011;2936;47.348;9.640;2023-04-19T14:21:15;21.13;;;14.88;;
5819;SDS011;2936;47.348;9.640;2023-04-19T14:41:53;26.35;;;16.30;;
5819;SDS011;2936;47.348;9.640;2023-04-19T14:44:21;21.58;;;16.15;;
5819;SDS011;2936;47.348;9.640;2023-04-19T14:46:49;28.10;;;17.02;;
5819;SDS011;2936;47.348;9.640;2023-04-19T14:49:16;25.42;;;16.42;;
5819;SDS011;2936;47.348;9.640;2023-04-19T14:51:44;22.80;;;17.00;;
5819;SDS011;2936;47.348;9.640;2023-04-19T14:54:11;26.38;;;18.08;;
5819;SDS011;2936;47.348;9.640;2023-04-19T14:56:39;28.52;;;18.38;;
5819;SDS011;2936;47.348;9.640;2023-04-19T14:59:07;26.23;;;17.90;;
5819;SDS011;2936;47.348;9.640;2023-04-19T15:01:35;27.95;;;17.63;;
5819;SDS011;2936;47.348;9.640;2023-04-19T15:04:02;23.48;;;17.75;;
5819;SDS011;2936;47.348;9.640;2023-04-19T15:06:30;25.05;;;16.27;;
5819;SDS011;2936;47.348;9.640;2023-04-19T15:08:57;25.92;;;16.17;;
5819;SDS011;2936;47.348;9.640;2023-04-19T15:11:25;22.35;;;15.38;;
5819;SDS011;2936;47.348;9.640;2023-04-19T15:13:52;22.13;;;15.77;;
5819;SDS011;2936;47.348;9.640;2023-04-19T15:16:21;29.45;;;16.45;;
5819;SDS011;2936;47.348;9.640;2023-04-19T15:18:48;29.85;;;16.13;;
5819;SDS011;2936;47.348;9.640;2023-04-19T15:21:17;24.63;;;16.05;;
5819;SDS011;2936;47.348;9.640;2023-04-19T15:23:45;23.13;;;15.45;;
5819;SDS011;2936;47.348;9.640;2023-04-19T15:26:12;23.02;;;16.35;;